Farciennes, Belgium
Current Conditions -  °F | °C
As of 4:50 PM on Friday 24 Oct 2014 (Local Time) from EBCI Reporting Station
Broken Clouds Broken Clouds  
Wind Chill: 54°   Ceiling: 3000
Heat Index: 54°   Visibility: 6mi
Dew Point: 46°   Wind: 12mph
Humidity: 77%   Direction: 180°S
Pressure: 30.06"   Gusts: NA
Location:  50.43°N, 4.54°E
Report Text: EBCI 241450Z 18010KT 9999 FEW017 BKN030 12/08 Q1018 NOSIG
Loading
Personal Weather Stations






























Interactive Weather Map
Tropical Storm Tracking
New forecast layout! Learn more

10-Day Weather Forecast

Advertisements
Track Severe Weather on mobile